createdAt,value
2023-02-11T00:00:41.935Z,3.01
2023-02-11T00:01:41.949Z,3.01
2023-02-11T00:02:41.991Z,3.01
2023-02-11T00:03:42.092Z,3.01
2023-02-11T00:04:42.047Z,3
2023-02-11T00:05:42.079Z,3.01
2023-02-11T00:06:42.108Z,3.01
2023-02-11T00:07:42.146Z,3
2023-02-11T00:08:42.195Z,3.01
2023-02-11T00:09:42.206Z,3.01
2023-02-11T00:10:42.240Z,3
2023-02-11T00:11:42.265Z,3
2023-02-11T00:12:42.309Z,3.01
2023-02-11T00:13:42.340Z,3.01
2023-02-11T00:14:42.371Z,3.01
2023-02-11T00:15:42.404Z,3.01
2023-02-11T00:16:42.478Z,3.02
2023-02-11T00:17:42.489Z,3.02
2023-02-11T00:18:42.514Z,3.04
2023-02-11T00:19:42.548Z,3.04
2023-02-11T00:20:42.573Z,3.04
2023-02-11T00:21:42.607Z,3.05
2023-02-11T00:22:42.636Z,3.05
2023-02-11T00:23:42.680Z,3.06
2023-02-11T00:24:42.708Z,3.11
2023-02-11T00:25:42.767Z,3.11
2023-02-11T00:26:42.771Z,3.13
2023-02-11T00:27:42.804Z,3.12
2023-02-11T00:28:42.848Z,3.12
2023-02-11T00:29:42.875Z,3.12
2023-02-11T00:30:43.137Z,3.11
2023-02-11T00:31:43.198Z,3.13
2023-02-11T00:32:42.982Z,3.13
2023-02-11T00:33:43.023Z,3.13
2023-02-11T00:34:43.114Z,3.15
2023-02-11T00:35:43.086Z,3.14
2023-02-11T00:36:43.127Z,3.16
2023-02-11T00:37:43.157Z,3.17
2023-02-11T00:38:43.180Z,3.19
2023-02-11T00:39:43.223Z,3.19
2023-02-11T00:40:43.251Z,3.18
2023-02-11T00:41:43.291Z,3.2
2023-02-11T00:42:43.325Z,3.2
2023-02-11T00:43:43.365Z,3.2
2023-02-11T00:44:43.396Z,3.21
2023-02-11T00:45:43.421Z,3.22
2023-02-11T00:46:43.507Z,3.22
2023-02-11T00:47:43.490Z,3.25
2023-02-11T00:48:43.530Z,3.25
2023-02-11T00:49:43.550Z,3.27
2023-02-11T00:50:43.586Z,3.27
2023-02-11T00:51:43.612Z,3.27
2023-02-11T00:52:43.656Z,3.29
2023-02-11T00:53:43.674Z,3.29
2023-02-11T00:54:43.713Z,3.29
2023-02-11T00:55:43.742Z,3.31
2023-02-11T00:56:43.778Z,3.32
2023-02-11T00:57:43.814Z,3.32
2023-02-11T00:58:43.841Z,3.35
2023-02-11T00:59:43.872Z,3.34
2023-02-11T01:00:43.905Z,3.33
2023-02-11T01:01:44.053Z,3.35
2023-02-11T01:02:43.992Z,3.36
2023-02-11T01:03:44.026Z,3.35
2023-02-11T01:04:44.057Z,3.35
2023-02-11T01:05:44.080Z,3.34
2023-02-11T01:06:44.110Z,3.35
2023-02-11T01:07:44.146Z,3.4
2023-02-11T01:08:44.194Z,3.4
2023-02-11T01:09:44.213Z,3.41
2023-02-11T01:10:44.269Z,3.42
2023-02-11T01:11:44.277Z,3.42
2023-02-11T01:12:44.317Z,3.42
2023-02-11T01:13:44.352Z,3.41
2023-02-11T01:14:44.386Z,3.41
2023-02-11T01:15:44.450Z,3.39
2023-02-11T01:16:44.440Z,3.39
2023-02-11T01:17:44.471Z,3.39
2023-02-11T01:18:44.576Z,3.43
2023-02-11T01:19:44.527Z,3.45
2023-02-11T01:20:44.562Z,3.44
2023-02-11T01:21:44.594Z,3.45
2023-02-11T01:22:44.626Z,3.44
2023-02-11T01:23:44.669Z,3.45
2023-02-11T01:24:44.706Z,3.45
2023-02-11T01:25:44.726Z,3.45
2023-02-11T01:26:44.737Z,3.45
2023-02-11T01:27:44.777Z,3.44
2023-02-11T01:28:44.817Z,3.44
2023-02-11T01:29:44.852Z,3.45
2023-02-11T01:30:44.922Z,3.45
2023-02-11T01:31:44.949Z,3.45
2023-02-11T01:32:44.960Z,3.48
2023-02-11T01:33:44.989Z,3.51
2023-02-11T01:34:45.022Z,3.5
2023-02-11T01:35:45.049Z,3.52
2023-02-11T01:36:45.080Z,3.52
2023-02-11T01:37:45.114Z,3.53
2023-02-11T01:38:45.147Z,3.53
2023-02-11T01:39:45.189Z,3.52
2023-02-11T01:40:45.213Z,3.52
2023-02-11T01:41:45.252Z,3.52
2023-02-11T01:42:45.291Z,3.52
2023-02-11T01:43:45.319Z,3.54
2023-02-11T01:44:45.353Z,3.53
2023-02-11T01:45:45.419Z,3.53
2023-02-11T01:46:45.454Z,3.52
2023-02-11T01:47:45.459Z,3.52
2023-02-11T01:48:45.494Z,3.52
2023-02-11T01:49:45.530Z,3.54
2023-02-11T01:50:45.576Z,3.55
2023-02-11T01:51:45.627Z,3.54
2023-02-11T01:52:45.639Z,3.52
2023-02-11T01:53:45.667Z,3.6
2023-02-11T01:54:45.700Z,3.58
2023-02-11T01:55:45.729Z,3.58
2023-02-11T01:56:45.783Z,3.59
2023-02-11T01:57:45.795Z,3.58
2023-02-11T01:58:45.850Z,3.59
2023-02-11T01:59:45.862Z,3.6
2023-02-11T02:00:45.884Z,3.6
2023-02-11T02:01:45.964Z,3.59
2023-02-11T02:02:45.947Z,3.61
2023-02-11T02:03:46.001Z,3.62
2023-02-11T02:04:46.037Z,3.62
2023-02-11T02:05:46.052Z,3.62
2023-02-11T02:06:46.089Z,3.61
2023-02-11T02:07:46.115Z,3.62
2023-02-11T02:08:46.157Z,3.63
2023-02-11T02:09:46.186Z,3.63
2023-02-11T02:10:46.221Z,3.64
2023-02-11T02:11:46.248Z,3.63
2023-02-11T02:12:46.287Z,3.63
2023-02-11T02:13:46.319Z,3.64
2023-02-11T02:14:46.350Z,3.64
2023-02-11T02:15:46.434Z,3.64
2023-02-11T02:16:46.417Z,3.65
2023-02-11T02:17:46.457Z,3.64
2023-02-11T02:18:46.484Z,3.66
2023-02-11T02:19:46.523Z,3.67
2023-02-11T02:20:46.561Z,3.68
2023-02-11T02:21:46.636Z,3.68
2023-02-11T02:22:46.631Z,3.68
2023-02-11T02:23:46.671Z,3.68
2023-02-11T02:24:46.704Z,3.68
2023-02-11T02:25:46.741Z,3.69
2023-02-11T02:26:46.779Z,3.69
2023-02-11T02:27:46.791Z,3.7
2023-02-11T02:28:46.834Z,3.7
2023-02-11T02:29:46.865Z,3.69
2023-02-11T02:30:46.983Z,3.7
2023-02-11T02:31:46.973Z,3.7
2023-02-11T02:32:46.973Z,3.7
2023-02-11T02:33:47.005Z,3.73
2023-02-11T02:34:47.027Z,3.73
2023-02-11T02:35:47.099Z,3.73
2023-02-11T02:36:47.085Z,3.73
2023-02-11T02:37:47.157Z,3.73
2023-02-11T02:38:47.148Z,3.73
2023-02-11T02:39:47.162Z,3.73
2023-02-11T02:40:47.200Z,3.74
2023-02-11T02:41:47.233Z,3.77
2023-02-11T02:42:47.288Z,3.78
2023-02-11T02:43:47.308Z,3.78
2023-02-11T02:44:47.351Z,3.78
2023-02-11T02:45:47.495Z,3.79
2023-02-11T02:46:47.484Z,3.79
2023-02-11T02:47:47.462Z,3.79
2023-02-11T02:48:47.488Z,3.79
2023-02-11T02:49:47.519Z,3.79
2023-02-11T02:50:47.548Z,3.79
2023-02-11T02:51:47.578Z,3.82
2023-02-11T02:52:47.617Z,3.82
2023-02-11T02:53:47.649Z,3.81
2023-02-11T02:54:47.688Z,3.81
2023-02-11T02:55:47.956Z,3.81
2023-02-11T02:56:47.749Z,3.81
2023-02-11T02:57:47.802Z,3.82
2023-02-11T02:58:47.817Z,3.82
2023-02-11T02:59:47.870Z,3.82
2023-02-11T03:00:47.918Z,3.82
2023-02-11T03:01:47.937Z,3.82
2023-02-11T03:02:47.975Z,3.82
2023-02-11T03:03:48.087Z,3.83
2023-02-11T03:04:48.041Z,3.83
2023-02-11T03:05:48.361Z,3.83
2023-02-11T03:06:48.099Z,3.84
2023-02-11T03:07:48.126Z,3.83
2023-02-11T03:08:48.178Z,3.82
2023-02-11T03:09:48.204Z,3.84
2023-02-11T03:10:48.257Z,3.87
2023-02-11T03:11:48.262Z,3.88
2023-02-11T03:12:48.319Z,3.88
2023-02-11T03:13:48.371Z,3.89
2023-02-11T03:14:48.370Z,3.89
2023-02-11T03:15:48.822Z,3.89
2023-02-11T03:16:48.433Z,3.89
2023-02-11T03:17:48.470Z,3.9
2023-02-11T03:18:48.512Z,3.9
2023-02-11T03:19:48.539Z,3.9
2023-02-11T03:20:48.574Z,3.9
2023-02-11T03:21:48.611Z,3.9
2023-02-11T03:22:48.662Z,3.9
2023-02-11T03:23:49.019Z,3.9
2023-02-11T03:24:48.716Z,3.9
2023-02-11T03:25:49.168Z,3.9
2023-02-11T03:26:48.795Z,3.9
2023-02-11T03:27:48.827Z,3.9
2023-02-11T03:28:48.865Z,3.9
2023-02-11T03:29:48.893Z,3.91
2023-02-11T03:30:48.967Z,3.91
2023-02-11T03:31:48.999Z,3.91
2023-02-11T03:32:48.991Z,3.91
2023-02-11T03:33:49.026Z,3.93
2023-02-11T03:34:49.058Z,3.93
2023-02-11T03:35:49.479Z,3.94
2023-02-11T03:36:49.127Z,3.94
2023-02-11T03:37:49.168Z,3.94
2023-02-11T03:38:49.203Z,3.93
2023-02-11T03:39:49.237Z,3.94
2023-02-11T03:40:49.277Z,3.94
2023-02-11T03:41:49.303Z,3.93
2023-02-11T03:42:49.335Z,3.93
2023-02-11T03:43:49.353Z,3.93
2023-02-11T03:44:49.420Z,3.93
2023-02-11T03:45:49.898Z,3.94
2023-02-11T03:46:49.470Z,3.94
2023-02-11T03:47:49.503Z,3.94
2023-02-11T03:48:49.527Z,3.94
2023-02-11T03:49:49.559Z,3.96
2023-02-11T03:50:49.597Z,3.96
2023-02-11T03:51:49.632Z,3.97
2023-02-11T03:52:49.667Z,3.97
2023-02-11T03:53:49.710Z,3.98
2023-02-11T03:54:49.738Z,3.97
2023-02-11T03:55:50.042Z,3.97
2023-02-11T03:56:49.817Z,3.98
2023-02-11T03:57:49.865Z,3.98
2023-02-11T03:58:49.927Z,3.99
2023-02-11T03:59:49.946Z,3.99
2023-02-11T04:00:49.994Z,4
2023-02-11T04:01:49.978Z,4
2023-02-11T04:02:50.080Z,4
2023-02-11T04:03:50.055Z,4
2023-02-11T04:04:50.105Z,4
2023-02-11T04:05:50.517Z,4
2023-02-11T04:06:50.166Z,4.01
2023-02-11T04:07:50.202Z,4.01
2023-02-11T04:08:50.243Z,4.02
2023-02-11T04:09:50.300Z,4.02
2023-02-11T04:10:50.319Z,4.03
2023-02-11T04:11:50.356Z,4.03
2023-02-11T04:12:50.412Z,4.03
2023-02-11T04:13:50.432Z,4.05
2023-02-11T04:14:50.465Z,4.05
2023-02-11T04:15:50.953Z,4.04
2023-02-11T04:16:50.543Z,4.04
2023-02-11T04:17:50.581Z,4.04
2023-02-11T04:18:50.629Z,4.04
2023-02-11T04:19:50.648Z,4.05
2023-02-11T04:20:50.680Z,4.07
2023-02-11T04:21:50.715Z,4.05
2023-02-11T04:22:50.763Z,4.08
2023-02-11T04:23:50.791Z,4.09
2023-02-11T04:24:50.825Z,4.13
2023-02-11T04:25:51.206Z,4.13
2023-02-11T04:26:50.892Z,4.1
2023-02-11T04:27:50.931Z,4.14
2023-02-11T04:28:50.971Z,4.14
2023-02-11T04:29:51.000Z,4.15
2023-02-11T04:30:51.113Z,4.15
2023-02-11T04:31:51.184Z,4.16
2023-02-11T04:32:51.097Z,4.14
2023-02-11T04:33:51.152Z,4.14
2023-02-11T04:34:51.174Z,4.15
2023-02-11T04:35:51.563Z,4.18
2023-02-11T04:36:51.283Z,4.18
2023-02-11T04:37:51.287Z,4.19
2023-02-11T04:38:51.321Z,4.2
2023-02-11T04:39:51.370Z,4.2
2023-02-11T04:40:51.390Z,4.2
2023-02-11T04:41:51.436Z,4.21
2023-02-11T04:42:51.468Z,4.21
2023-02-11T04:43:51.501Z,4.21
2023-02-11T04:44:51.530Z,4.22
2023-02-11T04:45:51.915Z,4.21
2023-02-11T04:46:51.590Z,4.22
2023-02-11T04:47:51.630Z,4.2
2023-02-11T04:48:51.668Z,4.22
2023-02-11T04:49:51.688Z,4.22
2023-02-11T04:50:51.731Z,4.22
2023-02-11T04:51:51.762Z,4.22
2023-02-11T04:52:51.792Z,4.23
2023-02-11T04:53:51.834Z,4.23
2023-02-11T04:54:51.863Z,4.23
2023-02-11T04:55:52.268Z,4.24
2023-02-11T04:56:51.927Z,4.24
2023-02-11T04:57:51.973Z,4.24
2023-02-11T04:58:51.998Z,4.25
2023-02-11T04:59:52.031Z,4.25
2023-02-11T05:00:52.109Z,4.26
2023-02-11T05:01:52.105Z,4.25
2023-02-11T05:02:52.129Z,4.26
2023-02-11T05:03:52.208Z,4.27
2023-02-11T05:04:52.199Z,4.27
2023-02-11T05:05:52.716Z,4.27
2023-02-11T05:06:52.279Z,4.28
2023-02-11T05:07:52.302Z,4.29
2023-02-11T05:08:52.333Z,4.3
2023-02-11T05:09:52.371Z,4.31
2023-02-11T05:10:52.415Z,4.3
2023-02-11T05:11:52.439Z,4.31
2023-02-11T05:12:55.334Z,4.31
2023-02-11T05:13:52.508Z,4.34
2023-02-11T05:14:52.542Z,4.29
2023-02-11T05:15:52.869Z,4.3
2023-02-11T05:16:52.676Z,4.3
2023-02-11T05:17:52.637Z,4.3
2023-02-11T05:18:52.783Z,4.3
2023-02-11T05:19:52.711Z,4.31
2023-02-11T05:20:52.735Z,4.34
2023-02-11T05:22:02.109Z,4.37
2023-02-11T05:22:52.803Z,4.37
2023-02-11T05:23:52.871Z,4.37
2023-02-11T05:24:52.885Z,4.37
2023-02-11T05:25:53.043Z,4.37
2023-02-11T05:26:52.941Z,4.37
2023-02-11T05:27:52.963Z,4.4
2023-02-11T05:28:53.004Z,4.4
2023-02-11T05:29:53.032Z,4.4
2023-02-11T05:30:53.097Z,4.41
2023-02-11T05:31:53.092Z,4.39
2023-02-11T05:32:53.129Z,4.41
2023-02-11T05:33:53.163Z,4.41
2023-02-11T05:34:53.201Z,4.41
2023-02-11T05:35:53.265Z,4.41
2023-02-11T05:36:53.289Z,4.42
2023-02-11T05:37:53.297Z,4.42
2023-02-11T05:38:53.326Z,4.43
2023-02-11T05:39:53.368Z,4.44
2023-02-11T05:40:53.410Z,4.46
2023-02-11T05:41:53.455Z,4.47
2023-02-11T05:42:53.478Z,4.48
2023-02-11T05:43:53.515Z,4.48
2023-02-11T05:44:53.545Z,4.44
2023-02-11T05:45:53.872Z,4.45
2023-02-11T05:46:53.637Z,4.45
2023-02-11T05:47:53.771Z,4.45
2023-02-11T05:48:53.691Z,4.45
2023-02-11T05:49:53.718Z,4.48
2023-02-11T05:50:53.754Z,4.49
2023-02-11T05:51:53.797Z,4.5
2023-02-11T05:52:53.833Z,4.5
2023-02-11T05:53:53.863Z,4.51
2023-02-11T05:54:53.895Z,4.51
2023-02-11T05:55:53.926Z,4.51
2023-02-11T05:56:53.965Z,4.51
2023-02-11T05:57:53.991Z,4.52
2023-02-11T05:58:54.027Z,4.52
2023-02-11T05:59:54.064Z,4.52
2023-02-11T06:00:54.076Z,4.52
2023-02-11T06:01:54.121Z,4.54
2023-02-11T06:02:54.247Z,4.52
2023-02-11T06:03:54.266Z,4.52
2023-02-11T06:04:54.231Z,4.52
2023-02-11T06:05:54.270Z,4.52
2023-02-11T06:06:54.310Z,4.52
2023-02-11T06:07:54.333Z,4.52
2023-02-11T06:08:54.377Z,4.52
2023-02-11T06:09:54.411Z,4.53
2023-02-11T06:10:54.445Z,4.53
2023-02-11T06:11:54.481Z,4.53
2023-02-11T06:12:54.519Z,4.53
2023-02-11T06:13:54.543Z,4.53
2023-02-11T06:14:54.599Z,4.53
2023-02-11T06:15:54.640Z,4.55
2023-02-11T06:16:54.645Z,4.56
2023-02-11T06:17:54.678Z,4.55
2023-02-11T06:18:54.716Z,4.55
2023-02-11T06:19:54.753Z,4.56
2023-02-11T06:20:54.771Z,4.56
2023-02-11T06:21:54.810Z,4.57
2023-02-11T06:22:54.854Z,4.58
2023-02-11T06:23:54.880Z,4.6
2023-02-11T06:25:00.913Z,4.62
2023-02-11T06:25:54.953Z,4.63
2023-02-11T06:26:54.969Z,4.63
2023-02-11T06:27:55.247Z,4.65
2023-02-11T06:28:55.043Z,4.65
2023-02-11T06:29:55.082Z,4.66
2023-02-11T06:30:55.196Z,4.66
2023-02-11T06:31:55.264Z,4.67
2023-02-11T06:32:55.280Z,4.67
2023-02-11T06:33:55.226Z,4.68
2023-02-11T06:34:55.258Z,4.71
2023-02-11T06:35:55.285Z,4.72
2023-02-11T06:36:55.330Z,4.73
2023-02-11T06:37:55.358Z,4.73
2023-02-11T06:38:55.378Z,4.74
2023-02-11T06:39:55.422Z,4.74
2023-02-11T06:40:55.457Z,4.75
2023-02-11T06:41:55.492Z,4.76
2023-02-11T06:42:55.526Z,4.76
2023-02-11T06:43:55.565Z,4.76
2023-02-11T06:44:55.601Z,4.76
2023-02-11T06:45:55.627Z,4.76
2023-02-11T06:46:55.742Z,4.79
2023-02-11T06:47:55.691Z,4.79
2023-02-11T06:48:55.720Z,4.8
2023-02-11T06:49:55.766Z,4.8
2023-02-11T06:50:55.794Z,4.8
2023-02-11T06:51:55.820Z,4.84
2023-02-11T06:52:55.868Z,4.84
2023-02-11T06:53:55.928Z,4.86
2023-02-11T06:54:55.942Z,4.87
2023-02-11T06:55:55.971Z,4.89
2023-02-11T06:56:56.005Z,4.88
2023-02-11T06:57:56.046Z,4.89
2023-02-11T06:58:56.090Z,4.89
2023-02-11T06:59:56.110Z,4.88
2023-02-11T07:00:56.135Z,4.91
2023-02-11T07:01:56.280Z,4.91
2023-02-11T07:02:56.245Z,4.91
2023-02-11T07:03:56.244Z,4.91
2023-02-11T07:04:56.272Z,4.92
2023-02-11T07:05:56.340Z,4.94
2023-02-11T07:06:56.338Z,4.95
2023-02-11T07:07:56.373Z,4.95
2023-02-11T07:08:56.409Z,4.96
2023-02-11T07:09:56.448Z,4.96
2023-02-11T07:10:56.495Z,4.95
2023-02-11T07:11:56.523Z,4.96
2023-02-11T07:12:58.783Z,4.95
2023-02-11T07:13:56.583Z,4.97
2023-02-11T07:14:56.626Z,4.97
2023-02-11T07:15:56.671Z,4.97
2023-02-11T07:16:56.699Z,4.97
2023-02-11T07:17:56.723Z,4.99
2023-02-11T07:18:56.756Z,5
2023-02-11T07:19:56.803Z,5
2023-02-11T07:20:56.835Z,5
2023-02-11T07:21:56.890Z,5
2023-02-11T07:22:56.902Z,5.03
2023-02-11T07:23:56.944Z,5.02
2023-02-11T07:24:56.993Z,5.02
2023-02-11T07:25:57.028Z,5.02
2023-02-11T07:26:57.042Z,5.07
2023-02-11T07:27:57.167Z,5.09
2023-02-11T07:28:57.122Z,5.09
2023-02-11T07:29:57.153Z,5.09
2023-02-11T07:30:57.247Z,5.1
2023-02-11T07:31:57.497Z,5.1
2023-02-11T07:32:57.262Z,5.09
2023-02-11T07:33:57.278Z,5.12
2023-02-11T07:34:57.402Z,5.11
2023-02-11T07:35:57.357Z,5.14
2023-02-11T07:36:57.395Z,5.14
2023-02-11T07:37:57.438Z,5.14
2023-02-11T07:38:57.458Z,5.16
2023-02-11T07:39:57.490Z,5.15
2023-02-11T07:40:57.522Z,5.15
2023-02-11T07:41:57.557Z,5.15
2023-02-11T07:42:57.597Z,5.23
2023-02-11T07:43:57.669Z,5.23
2023-02-11T07:44:57.667Z,5.23
2023-02-11T07:45:57.699Z,5.22
2023-02-11T07:46:57.886Z,5.22
2023-02-11T07:47:57.759Z,5.23
2023-02-11T07:48:57.835Z,5.23
2023-02-11T07:49:57.826Z,5.23
2023-02-11T07:50:57.855Z,5.22
2023-02-11T07:51:57.879Z,5.24
2023-02-11T07:52:57.912Z,5.25
2023-02-11T07:53:57.950Z,5.24
2023-02-11T07:54:57.987Z,5.26
2023-02-11T07:55:58.017Z,5.26
2023-02-11T07:56:58.059Z,5.26
2023-02-11T07:57:58.091Z,5.25
2023-02-11T07:58:58.126Z,5.24
2023-02-11T07:59:58.158Z,5.24
2023-02-11T08:00:58.224Z,5.23
2023-02-11T08:01:58.253Z,5.23
2023-02-11T08:02:58.277Z,5.22
2023-02-11T08:03:58.299Z,5.22
2023-02-11T08:04:58.323Z,5.22
2023-02-11T08:05:58.376Z,5.21
2023-02-11T08:06:59.168Z,5.21
2023-02-11T08:07:58.441Z,5.2
2023-02-11T08:08:58.469Z,5.21
2023-02-11T08:09:58.516Z,5.21
2023-02-11T08:10:58.567Z,5.2
2023-02-11T08:11:58.577Z,5.2
2023-02-11T08:12:58.612Z,5.2
2023-02-11T08:13:58.648Z,5.19
2023-02-11T08:14:58.690Z,5.19
2023-02-11T08:15:58.883Z,5.21
2023-02-11T08:16:58.763Z,5.22
2023-02-11T08:17:58.802Z,5.24
2023-02-11T08:18:58.827Z,5.26
2023-02-11T08:19:58.855Z,5.26
2023-02-11T08:20:58.890Z,5.28
2023-02-11T08:21:58.927Z,5.28
2023-02-11T08:22:58.969Z,5.28
2023-02-11T08:23:58.995Z,5.28
2023-02-11T08:24:59.034Z,5.28
2023-02-11T08:25:59.063Z,5.28
2023-02-11T08:26:59.104Z,5.29
2023-02-11T08:27:59.158Z,5.29
2023-02-11T08:28:59.167Z,5.3
2023-02-11T08:29:59.195Z,5.31
2023-02-11T08:30:59.265Z,5.31
2023-02-11T08:31:59.290Z,5.32
2023-02-11T08:32:59.292Z,5.32
2023-02-11T08:33:59.329Z,5.33
2023-02-11T08:34:59.386Z,5.33
2023-02-11T08:35:59.406Z,5.34
2023-02-11T08:36:59.437Z,5.35
2023-02-11T08:37:59.473Z,5.35
2023-02-11T08:39:16.063Z,5.35
2023-02-11T08:39:59.576Z,5.35
2023-02-11T08:40:59.583Z,5.32
2023-02-11T08:41:59.615Z,5.3
2023-02-11T08:42:59.653Z,5.32
2023-02-11T08:43:59.674Z,5.35
2023-02-11T08:44:59.726Z,5.36
2023-02-11T08:46:01.888Z,5.36
2023-02-11T08:46:59.774Z,5.36
2023-02-11T08:47:59.810Z,5.36
2023-02-11T08:48:59.858Z,5.36
2023-02-11T08:49:59.884Z,5.36
2023-02-11T08:50:59.934Z,5.37
2023-02-11T08:51:59.963Z,5.37
2023-02-11T08:52:59.993Z,5.37
2023-02-11T08:54:00.034Z,5.37
2023-02-11T08:55:00.110Z,5.37
2023-02-11T08:56:00.122Z,5.38
2023-02-11T08:57:00.151Z,5.39
2023-02-11T08:58:00.183Z,5.39
2023-02-11T08:59:00.218Z,5.39
2023-02-11T09:00:00.247Z,5.41
2023-02-11T09:01:00.375Z,5.42
2023-02-11T09:02:00.378Z,5.42
2023-02-11T09:03:00.356Z,5.41
2023-02-11T09:04:00.388Z,5.43
2023-02-11T09:05:00.445Z,5.43
2023-02-11T09:06:00.496Z,5.42
2023-02-11T09:07:00.505Z,5.43
2023-02-11T09:08:00.534Z,5.43
2023-02-11T09:09:00.592Z,5.44
2023-02-11T09:10:00.611Z,5.47
2023-02-11T09:11:00.657Z,5.47
2023-02-11T09:12:00.705Z,5.48
2023-02-11T09:13:00.720Z,5.47
2023-02-11T09:14:00.778Z,5.48
2023-02-11T09:15:00.780Z,5.49
2023-02-11T09:16:00.817Z,5.49
2023-02-11T09:17:00.927Z,5.49
2023-02-11T09:18:00.905Z,5.49
2023-02-11T09:19:00.919Z,5.49
2023-02-11T09:20:00.952Z,5.49
2023-02-11T09:21:00.986Z,5.49
2023-02-11T09:22:01.016Z,5.49
2023-02-11T09:23:01.050Z,5.48
2023-02-11T09:24:01.104Z,5.48
2023-02-11T09:25:01.128Z,5.48
2023-02-11T09:26:01.161Z,5.48
2023-02-11T09:27:01.199Z,5.5
2023-02-11T09:28:01.258Z,5.51
2023-02-11T09:29:01.273Z,5.52
2023-02-11T09:30:01.326Z,5.52
2023-02-11T09:31:01.421Z,5.52
2023-02-11T09:32:01.510Z,5.52
2023-02-11T09:33:01.398Z,5.52
2023-02-11T09:34:01.435Z,5.52
2023-02-11T09:35:01.483Z,5.54
2023-02-11T09:36:01.496Z,5.54
2023-02-11T09:37:01.527Z,5.54
2023-02-11T09:38:01.557Z,5.53
2023-02-11T09:39:01.593Z,5.53
2023-02-11T09:40:01.638Z,5.52
2023-02-11T09:41:01.654Z,5.52
2023-02-11T09:42:01.701Z,5.52
2023-02-11T09:43:04.115Z,5.53
2023-02-11T09:44:01.769Z,5.53
2023-02-11T09:45:01.846Z,5.53
2023-02-11T09:46:01.866Z,5.53
2023-02-11T09:47:01.855Z,5.57
2023-02-11T09:48:04.367Z,5.57
2023-02-11T09:49:01.929Z,5.57
2023-02-11T09:50:01.988Z,5.59
2023-02-11T09:51:02.011Z,5.58
2023-02-11T09:52:02.032Z,5.58
2023-02-11T09:53:02.066Z,5.58
2023-02-11T09:54:05.184Z,5.57
2023-02-11T09:55:02.125Z,5.6
2023-02-11T09:56:02.165Z,5.59
2023-02-11T09:57:02.181Z,5.61
2023-02-11T09:58:02.222Z,5.61
2023-02-11T09:59:02.253Z,5.63
2023-02-11T10:00:02.294Z,5.63
2023-02-11T10:01:02.416Z,5.63
2023-02-11T10:02:02.376Z,5.64
2023-02-11T10:03:02.398Z,5.64
2023-02-11T10:04:02.504Z,5.64
2023-02-11T10:05:02.468Z,5.64
2023-02-11T10:06:02.497Z,5.64
2023-02-11T10:07:02.535Z,5.64
2023-02-11T10:08:02.569Z,5.64
2023-02-11T10:09:02.708Z,5.65
2023-02-11T10:10:02.643Z,5.66
2023-02-11T10:11:02.669Z,5.68
2023-02-11T10:12:02.711Z,5.68
2023-02-11T10:13:02.741Z,5.68
2023-02-11T10:14:02.780Z,5.74
2023-02-11T10:15:02.803Z,5.74
2023-02-11T10:16:02.943Z,5.75
2023-02-11T10:17:02.873Z,5.75
2023-02-11T10:18:02.915Z,5.75
2023-02-11T10:19:02.952Z,5.76
2023-02-11T10:20:02.979Z,5.76
2023-02-11T10:21:03.038Z,5.77
2023-02-11T10:22:03.054Z,5.78
2023-02-11T10:23:03.085Z,5.79
2023-02-11T10:24:03.119Z,5.79
2023-02-11T10:25:03.156Z,5.8
2023-02-11T10:26:03.191Z,5.8
2023-02-11T10:27:03.235Z,5.81
2023-02-11T10:28:03.313Z,5.82
2023-02-11T10:29:03.305Z,5.82
2023-02-11T10:30:03.333Z,5.82
2023-02-11T10:31:03.526Z,5.83
2023-02-11T10:32:03.452Z,5.83
2023-02-11T10:33:03.429Z,5.83
2023-02-11T10:34:03.457Z,5.83
2023-02-11T10:35:03.513Z,5.86
2023-02-11T10:36:03.539Z,5.86
2023-02-11T10:37:03.585Z,5.86
2023-02-11T10:38:03.607Z,5.85
2023-02-11T10:39:03.635Z,5.86
2023-02-11T10:40:03.666Z,5.86
2023-02-11T10:41:03.707Z,5.87
2023-02-11T10:42:03.724Z,5.87
2023-02-11T10:43:03.759Z,5.87
2023-02-11T10:44:03.787Z,5.87
2023-02-11T10:45:03.825Z,5.88
2023-02-11T10:46:04.004Z,5.91
2023-02-11T10:47:03.884Z,5.91
2023-02-11T10:48:03.933Z,5.91
2023-02-11T10:49:03.970Z,5.9
2023-02-11T10:50:03.993Z,5.91
2023-02-11T10:51:04.034Z,5.91
2023-02-11T10:52:04.066Z,5.91
2023-02-11T10:53:04.086Z,5.91
2023-02-11T10:54:04.123Z,5.92
2023-02-11T10:55:04.155Z,5.98
2023-02-11T10:56:04.189Z,5.98
2023-02-11T10:57:04.221Z,5.98
2023-02-11T10:58:04.259Z,5.98
2023-02-11T10:59:04.288Z,5.98
2023-02-11T11:00:04.331Z,6
2023-02-11T11:01:12.893Z,5.99
2023-02-11T11:02:04.527Z,5.99
2023-02-11T11:03:04.421Z,6
2023-02-11T11:04:04.458Z,5.99
2023-02-11T11:05:04.555Z,6
2023-02-11T11:06:04.522Z,6
2023-02-11T11:07:04.569Z,6
2023-02-11T11:08:04.621Z,6
2023-02-11T11:09:04.640Z,6.01
2023-02-11T11:10:04.672Z,6.01
2023-02-11T11:11:04.726Z,6.01
2023-02-11T11:12:04.752Z,6.02
2023-02-11T11:13:04.843Z,6.02
2023-02-11T11:14:04.815Z,6.02
2023-02-11T11:15:04.854Z,6.02
2023-02-11T11:16:04.971Z,6.03
2023-02-11T11:17:04.925Z,6.04
2023-02-11T11:18:20.268Z,6.04
2023-02-11T11:19:05.012Z,6.03
2023-02-11T11:20:05.029Z,6.03
2023-02-11T11:21:05.063Z,6.05
2023-02-11T11:22:05.099Z,6.06
2023-02-11T11:23:05.132Z,6.04
2023-02-11T11:24:05.166Z,6.07
2023-02-11T11:25:05.198Z,6.04
2023-02-11T11:26:05.279Z,6.04
2023-02-11T11:27:05.270Z,6.04
2023-02-11T11:28:05.381Z,6.04
2023-02-11T11:29:05.326Z,6.04
2023-02-11T11:30:05.379Z,6.04
2023-02-11T11:31:05.485Z,6.09
2023-02-11T11:32:05.557Z,6.12
2023-02-11T11:33:05.474Z,6.09
2023-02-11T11:34:05.513Z,6.11
2023-02-11T11:35:05.554Z,6.11
2023-02-11T11:36:05.580Z,6.11
2023-02-11T11:37:05.648Z,6.11
2023-02-11T11:38:05.656Z,6.11
2023-02-11T11:39:05.679Z,6.11
2023-02-11T11:40:05.712Z,6.11
2023-02-11T11:41:05.745Z,6.11
2023-02-11T11:42:05.788Z,6.1
2023-02-11T11:43:05.817Z,6.11
2023-02-11T11:44:05.855Z,6.11
2023-02-11T11:45:05.884Z,6.11
2023-02-11T11:46:05.920Z,6.13
2023-02-11T11:47:05.957Z,6.13
2023-02-11T11:48:05.989Z,6.13
2023-02-11T11:49:06.034Z,6.13
2023-02-11T11:50:06.055Z,6.12
2023-02-11T11:51:06.083Z,6.12
2023-02-11T11:52:06.106Z,6.11
2023-02-11T11:53:06.143Z,6.13
2023-02-11T11:54:06.168Z,6.11
2023-02-11T11:55:06.192Z,6.13
2023-02-11T11:56:06.277Z,6.12
2023-02-11T11:57:06.267Z,6.12
2023-02-11T11:58:06.294Z,6.12
2023-02-11T11:59:06.340Z,6.12
2023-02-11T12:00:06.381Z,6.12
2023-02-11T12:01:06.462Z,6.11
2023-02-11T12:02:08.440Z,6.11
2023-02-11T12:03:06.537Z,6.17
2023-02-11T12:04:06.512Z,6.18
2023-02-11T12:05:06.536Z,6.17
2023-02-11T12:06:06.569Z,6.17
2023-02-11T12:07:06.608Z,6.17
2023-02-11T12:08:06.633Z,6.16
2023-02-11T12:09:06.657Z,6.16
2023-02-11T12:10:06.692Z,6.16
2023-02-11T12:11:06.733Z,6.18
2023-02-11T12:12:06.762Z,6.18
2023-02-11T12:13:06.811Z,6.18
2023-02-11T12:14:06.827Z,6.18
2023-02-11T12:15:06.858Z,6.17
2023-02-11T12:16:06.946Z,6.17
2023-02-11T12:17:06.923Z,6.17
2023-02-11T12:18:07.038Z,6.17
2023-02-11T12:19:06.982Z,6.16
2023-02-11T12:20:07.010Z,6.2
2023-02-11T12:21:07.054Z,6.2
2023-02-11T12:22:07.090Z,6.2
2023-02-11T12:23:07.121Z,6.2
2023-02-11T12:24:07.165Z,6.2
2023-02-11T12:25:07.187Z,6.21
2023-02-11T12:26:07.221Z,6.22
2023-02-11T12:27:07.259Z,6.23
2023-02-11T12:28:07.313Z,6.23
2023-02-11T12:29:07.335Z,6.23
2023-02-11T12:30:07.365Z,6.23
2023-02-11T12:31:07.454Z,6.24
2023-02-11T12:32:07.533Z,6.22
2023-02-11T12:33:07.468Z,6.24
2023-02-11T12:34:07.536Z,6.24
2023-02-11T12:35:07.541Z,6.21
2023-02-11T12:36:07.580Z,6.21
2023-02-11T12:37:08.093Z,6.26
2023-02-11T12:38:07.659Z,6.28
2023-02-11T12:39:07.717Z,6.28
2023-02-11T12:40:07.720Z,6.27
2023-02-11T12:41:07.757Z,6.27
2023-02-11T12:42:07.800Z,6.27
2023-02-11T12:43:07.833Z,6.27
2023-02-11T12:44:07.862Z,6.28
2023-02-11T12:45:07.907Z,6.28
2023-02-11T12:46:08.057Z,6.28
2023-02-11T12:47:07.972Z,6.28
2023-02-11T12:48:08.017Z,6.27
2023-02-11T12:49:08.050Z,6.25
2023-02-11T12:50:08.072Z,6.26
2023-02-11T12:51:08.123Z,6.31
2023-02-11T12:52:08.170Z,6.33
2023-02-11T12:53:08.189Z,6.33
2023-02-11T12:54:08.226Z,6.33
2023-02-11T12:55:08.259Z,6.33
2023-02-11T12:56:08.280Z,6.33
2023-02-11T12:57:08.327Z,6.34
2023-02-11T12:58:08.355Z,6.34
2023-02-11T12:59:08.381Z,6.34
2023-02-11T13:00:08.424Z,6.34
2023-02-11T13:01:08.503Z,6.34
2023-02-11T13:02:08.523Z,6.34
2023-02-11T13:03:08.525Z,6.34
2023-02-11T13:04:08.561Z,6.34
2023-02-11T13:05:08.593Z,6.37
2023-02-11T13:06:08.617Z,6.37
2023-02-11T13:07:08.660Z,6.37
2023-02-11T13:08:08.684Z,6.37
2023-02-11T13:09:08.723Z,6.37
2023-02-11T13:10:08.763Z,6.37
2023-02-11T13:11:08.785Z,6.37
2023-02-11T13:12:08.802Z,6.37
2023-02-11T13:13:08.839Z,6.38
2023-02-11T13:14:08.874Z,6.38
2023-02-11T13:15:08.908Z,6.39
2023-02-11T13:16:08.966Z,6.39
2023-02-11T13:17:08.976Z,6.38
2023-02-11T13:18:09.006Z,6.39
2023-02-11T13:19:09.056Z,6.39
2023-02-11T13:20:09.077Z,6.38
2023-02-11T13:21:09.110Z,6.38
2023-02-11T13:22:09.145Z,6.39
2023-02-11T13:23:09.175Z,6.43